Time;durP1;ratioP1;P1;durP2;ratioP2;P2;SDS_P1;SDS_P2;PMS_P1;PMS_P2;Temp;Humidity;BMP_temperature;BMP_pressure;BME280_temperature;BME280_humidity;BME280_pressure;Samples;Min_cycle;Max_cycle;Signal;HPM_P1;HPM_P2
2021/01/17 00:00:13;;;;;;;1.33;1.23;;;7.70;79.30;;;;;;5083152;28;20032;-41
2021/01/17 00:02:39;;;;;;;2.42;1.20;;;7.70;79.20;;;;;;5082370;28;20035;-41
2021/01/17 00:05:10;;;;;;;1.40;1.30;;;7.70;79.20;;;;;;5081953;28;20080;-41
2021/01/17 00:07:36;;;;;;;1.10;1.00;;;7.60;79.20;;;;;;5083456;28;20033;-41
2021/01/17 00:10:07;;;;;;;1.65;1.27;;;7.60;79.10;;;;;;5083662;28;20552;-41
2021/01/17 00:12:33;;;;;;;1.30;1.05;;;7.60;79.00;;;;;;5083556;28;20047;-41
2021/01/17 00:14:59;;;;;;;1.40;1.10;;;7.60;79.10;;;;;;5083377;28;20028;-41
2021/01/17 00:17:27;;;;;;;1.42;1.23;;;7.60;79.10;;;;;;5083369;28;20029;-41
2021/01/17 00:19:54;;;;;;;1.20;1.08;;;7.60;79.20;;;;;;5082964;28;20050;-41
2021/01/17 00:22:21;;;;;;;1.17;0.90;;;7.60;79.20;;;;;;5083398;28;20039;-41
2021/01/17 00:24:47;;;;;;;1.30;1.10;;;7.60;79.30;;;;;;5082943;28;20024;-41
2021/01/17 00:27:14;;;;;;;1.30;1.20;;;7.60;79.20;;;;;;5083316;28;20052;-41
2021/01/17 00:29:40;;;;;;;0.93;0.85;;;7.60;79.20;;;;;;5083196;28;20090;-41
2021/01/17 00:32:13;;;;;;;1.13;1.02;;;7.60;79.30;;;;;;5083136;28;20060;-41
2021/01/17 00:34:39;;;;;;;1.10;1.00;;;7.60;79.30;;;;;;5081874;28;20024;-41
2021/01/17 00:37:06;;;;;;;1.13;1.02;;;7.60;79.30;;;;;;5083224;28;20048;-41
2021/01/17 00:39:32;;;;;;;1.30;1.20;;;7.50;79.30;;;;;;5081352;28;20078;-41
2021/01/17 00:41:58;;;;;;;1.33;1.20;;;7.50;79.30;;;;;;5083698;28;20496;-41
2021/01/17 00:44:24;;;;;;;1.10;1.00;;;7.50;79.30;;;;;;5083108;28;20043;-41
2021/01/17 00:46:50;;;;;;;1.90;1.58;;;7.50;79.30;;;;;;5083138;28;20055;-41
2021/01/17 00:49:17;;;;;;;2.05;1.27;;;7.50;79.40;;;;;;5082809;28;20063;-41
2021/01/17 00:51:46;;;;;;;1.38;1.00;;;7.50;79.40;;;;;;5085960;28;20071;-41
2021/01/17 00:54:15;;;;;;;1.35;1.25;;;7.50;79.30;;;;;;5086480;28;20024;-41
2021/01/17 00:56:42;;;;;;;1.33;1.20;;;7.50;79.40;;;;;;5095969;28;20031;-41
2021/01/17 00:59:09;;;;;;;1.85;1.48;;;7.50;79.50;;;;;;5105239;28;20496;-41
2021/01/17 01:01:42;;;;;;;1.52;1.42;;;7.50;79.50;;;;;;5107021;28;20040;-41
2021/01/17 01:04:15;;;;;;;1.88;1.40;;;7.50;79.50;;;;;;5106755;28;20028;-41
2021/01/17 01:06:41;;;;;;;1.50;1.40;;;7.50;79.50;;;;;;5103679;28;20025;-41
2021/01/17 01:09:09;;;;;;;1.40;1.30;;;7.40;79.40;;;;;;5106471;28;20020;-41
2021/01/17 01:11:35;;;;;;;1.98;1.38;;;7.40;79.50;;;;;;5092877;28;20040;-41
2021/01/17 01:14:01;;;;;;;1.42;1.30;;;7.40;79.50;;;;;;5086410;28;20029;-41
2021/01/17 01:16:27;;;;;;;1.65;1.33;;;7.40;79.50;;;;;;5084879;28;20036;-41
2021/01/17 01:18:53;;;;;;;1.77;1.48;;;7.40;79.50;;;;;;5086162;28;20032;-41
2021/01/17 01:21:30;;;;;;;2.05;1.80;;;7.40;79.50;;;;;;5085948;28;20052;-41
2021/01/17 01:23:56;;;;;;;1.70;1.52;;;7.40;79.60;;;;;;5087870;28;20016;-41
2021/01/17 01:26:22;;;;;;;2.10;1.80;;;7.40;79.60;;;;;;5087695;28;20028;-41
2021/01/17 01:28:54;;;;;;;1.80;1.45;;;7.40;79.50;;;;;;5086066;28;20013;-41
2021/01/17 01:31:23;;;;;;;2.42;1.48;;;7.40;79.60;;;;;;5085933;28;20043;-41
2021/01/17 01:33:50;;;;;;;1.35;1.25;;;7.40;79.60;;;;;;5085738;28;20076;-41
2021/01/17 01:36:24;;;;;;;1.65;1.50;;;7.30;79.60;;;;;;5084899;28;20032;-41
2021/01/17 01:38:50;;;;;;;2.92;1.60;;;7.30;79.60;;;;;;5085905;28;20024;-40
2021/01/17 01:41:16;;;;;;;1.73;1.60;;;7.30;79.70;;;;;;5084978;28;20032;-41
2021/01/17 01:43:43;;;;;;;1.85;1.60;;;7.30;79.70;;;;;;5086054;28;20032;-41
2021/01/17 01:46:13;;;;;;;1.42;1.20;;;7.30;79.70;;;;;;5085717;28;20033;-40
2021/01/17 01:48:40;;;;;;;1.38;1.27;;;7.30;79.70;;;;;;5085863;28;20021;-40
2021/01/17 01:51:06;;;;;;;1.90;1.58;;;7.30;79.80;;;;;;5095980;28;20053;-41
2021/01/17 01:53:32;;;;;;;1.95;1.50;;;7.20;79.70;;;;;;5082068;28;20029;-40
2021/01/17 01:55:58;;;;;;;1.80;1.30;;;7.20;79.70;;;;;;5084182;28;20492;-41
2021/01/17 01:58:25;;;;;;;1.95;1.58;;;7.20;79.70;;;;;;5084133;28;20080;-41
2021/01/17 02:00:51;;;;;;;1.65;1.48;;;7.20;80.50;;;;;;5083849;28;20025;-41
2021/01/17 02:03:17;;;;;;;1.60;1.50;;;7.20;79.70;;;;;;5085636;28;20024;-41
2021/01/17 02:05:44;;;;;;;1.83;1.58;;;7.20;79.70;;;;;;5085362;28;20055;-41
2021/01/17 02:08:45;;;;;;;2.33;1.70;;;7.20;79.70;;;;;;5083776;28;20036;-41
2021/01/17 02:11:31;;;;;;;1.67;1.55;;;7.20;79.80;;;;;;5093429;28;20040;-40
2021/01/17 02:14:36;;;;;;;2.10;1.48;;;7.20;79.80;;;;;;5065197;28;20575;-41
2021/01/17 02:17:06;;;;;;;2.53;1.50;;;7.10;79.70;;;;;;5063358;28;20097;-41
2021/01/17 02:19:37;;;;;;;2.10;1.50;;;7.10;79.70;;;;;;5080956;28;20136;-41
2021/01/17 02:22:03;;;;;;;3.40;1.75;;;7.10;79.70;;;;;;5065067;28;20033;-41
2021/01/17 02:24:45;;;;;;;2.70;1.80;;;7.10;79.80;;;;;;5063597;28;20555;-41
2021/01/17 02:27:11;;;;;;;2.00;1.63;;;7.10;79.80;;;;;;5080762;28;20032;-41
2021/01/17 02:29:37;;;;;;;1.92;1.73;;;7.10;79.80;;;;;;5065138;28;20032;-41
2021/01/17 02:32:04;;;;;;;3.22;2.05;;;7.10;80.50;;;;;;5063608;28;20063;-41
2021/01/17 02:34:30;;;;;;;2.17;1.77;;;7.10;79.80;;;;;;5080117;28;20084;-41
2021/01/17 02:37:08;;;;;;;2.50;1.88;;;7.10;79.80;;;;;;5064993;28;20025;-41
2021/01/17 02:39:56;;;;;;;4.10;2.08;;;7.10;79.80;;;;;;5080574;28;20047;-40
2021/01/17 02:42:22;;;;;;;1.75;1.52;;;7.10;79.90;;;;;;5094641;28;20483;-41
2021/01/17 02:44:49;;;;;;;2.53;2.00;;;7.10;79.90;;;;;;5084223;28;20028;-41
2021/01/17 02:47:15;;;;;;;2.90;1.92;;;7.00;79.80;;;;;;5085033;28;20020;-41
2021/01/17 02:49:41;;;;;;;2.97;1.80;;;7.00;79.90;;;;;;5084573;28;20076;-41
2021/01/17 02:52:07;;;;;;;2.20;2.00;;;7.00;79.90;;;;;;5084515;28;20060;-41
2021/01/17 02:54:34;;;;;;;3.22;2.10;;;7.00;79.90;;;;;;5093637;28;20028;-41
2021/01/17 02:57:04;;;;;;;;;;;7.00;79.90;;;;;;5063148;28;20033;-40
2021/01/17 02:59:34;;;;;;;2.88;1.92;;;7.00;80.00;;;;;;5064516;28;19913;-41
2021/01/17 03:02:04;;;;;;;2.40;2.03;;;7.00;80.00;;;;;;5078245;28;20047;-40
2021/01/17 03:04:35;;;;;;;2.53;2.05;;;6.90;80.00;;;;;;5102867;28;20514;-41
2021/01/17 03:07:05;;;;;;;2.50;1.92;;;7.00;80.80;;;;;;5103283;28;20027;-41
2021/01/17 03:09:31;;;;;;;2.72;2.15;;;7.00;80.10;;;;;;5103074;28;20032;-43
2021/01/17 03:12:02;;;;;;;2.78;2.08;;;6.90;80.10;;;;;;5096337;28;20040;-40
2021/01/17 03:14:30;;;;;;;2.53;1.80;;;6.90;80.10;;;;;;5081959;28;20024;-40
2021/01/17 03:16:56;;;;;;;3.47;2.03;;;6.90;80.10;;;;;;5100152;28;20128;-41
2021/01/17 03:19:22;;;;;;;3.53;2.53;;;6.90;80.10;;;;;;5083938;28;20078;-41
2021/01/17 03:21:49;;;;;;;2.30;1.85;;;6.90;80.10;;;;;;5084059;28;20515;-41
2021/01/17 03:24:15;;;;;;;4.15;2.08;;;6.90;80.20;;;;;;5083708;28;20092;-40
2021/01/17 03:26:41;;;;;;;2.55;1.98;;;6.90;80.20;;;;;;5083401;28;20020;-40
2021/01/17 03:29:07;;;;;;;3.30;2.45;;;6.90;80.20;;;;;;5092906;28;20455;-40
2021/01/17 03:31:33;;;;;;;2.45;1.90;;;6.90;80.20;;;;;;5104173;28;20043;-41
2021/01/17 03:33:59;;;;;;;3.20;2.70;;;6.80;80.10;;;;;;5104167;28;20162;-41
2021/01/17 03:36:25;;;;;;;3.60;2.67;;;6.80;80.20;;;;;;5103566;28;20028;-40
2021/01/17 03:38:52;;;;;;;2.42;2.13;;;6.80;80.20;;;;;;5104066;28;20046;-40
2021/01/17 03:41:18;;;;;;;3.72;2.25;;;6.80;80.20;;;;;;5103035;28;20031;-41
2021/01/17 03:43:44;;;;;;;2.95;2.17;;;6.80;80.20;;;;;;5084038;28;20590;-40
2021/01/17 03:46:10;;;;;;;4.13;2.60;;;6.80;80.20;;;;;;5083289;28;20032;-41
2021/01/17 03:48:37;;;;;;;3.78;2.35;;;6.80;80.20;;;;;;5083793;28;20020;-41
2021/01/17 03:51:03;;;;;;;2.92;2.03;;;6.80;80.20;;;;;;5083542;28;20067;-40
2021/01/17 03:53:29;;;;;;;5.13;2.67;;;6.70;80.20;;;;;;5083234;28;20048;-41
2021/01/17 03:55:55;;;;;;;3.35;2.63;;;6.70;80.20;;;;;;5083323;28;20510;-40
2021/01/17 03:58:21;;;;;;;3.78;2.38;;;6.70;80.20;;;;;;5083507;28;20071;-40
2021/01/17 04:00:48;;;;;;;3.55;2.70;;;6.70;80.20;;;;;;5083569;28;20035;-40
2021/01/17 04:03:15;;;;;;;3.88;2.53;;;6.70;80.20;;;;;;5083714;28;20088;-40
2021/01/17 04:05:41;;;;;;;2.88;2.38;;;6.70;80.30;;;;;;5081754;28;20036;-40
2021/01/17 04:08:07;;;;;;;3.95;2.47;;;6.70;80.30;;;;;;5083458;28;20099;-41
2021/01/17 04:10:33;;;;;;;3.70;2.60;;;6.70;80.30;;;;;;5087607;28;20024;-40
2021/01/17 04:12:59;;;;;;;4.40;2.90;;;6.70;80.30;;;;;;5089250;28;20024;-40
2021/01/17 04:15:26;;;;;;;3.33;2.60;;;6.60;80.20;;;;;;5083126;28;20020;-41
2021/01/17 04:17:52;;;;;;;4.17;2.80;;;6.60;80.30;;;;;;5083610;28;20088;-40
2021/01/17 04:20:18;;;;;;;3.58;2.90;;;6.70;80.30;;;;;;5083287;28;20033;-40
2021/01/17 04:22:44;;;;;;;2.85;2.35;;;6.60;80.30;;;;;;5083436;28;20070;-40
2021/01/17 04:25:11;;;;;;;4.10;2.72;;;6.60;80.30;;;;;;5085634;28;20025;-40
2021/01/17 04:27:37;;;;;;;3.13;2.65;;;6.60;80.30;;;;;;5087313;28;20465;-40
2021/01/17 04:30:06;;;;;;;3.50;2.92;;;6.60;80.30;;;;;;5087299;28;20092;-40
2021/01/17 04:32:34;;;;;;;4.32;2.78;;;6.60;80.40;;;;;;5087357;28;20135;-40
2021/01/17 04:35:01;;;;;;;4.97;2.90;;;6.60;80.40;;;;;;5087187;28;20088;-40
2021/01/17 04:37:27;;;;;;;3.72;2.83;;;6.50;80.40;;;;;;5086927;28;20111;-40
2021/01/17 04:39:53;;;;;;;3.72;2.45;;;6.60;80.50;;;;;;5090196;28;20028;-40
2021/01/17 04:42:20;;;;;;;3.65;2.80;;;6.60;80.40;;;;;;5097848;28;20021;-40
2021/01/17 04:45:00;;;;;;;4.00;2.72;;;6.50;80.40;;;;;;5087095;28;20024;-40
2021/01/17 04:47:26;;;;;;;3.50;2.63;;;6.50;80.40;;;;;;5085434;28;20040;-40
2021/01/17 04:49:53;;;;;;;3.83;2.88;;;6.50;80.40;;;;;;5085399;28;20110;-40
2021/01/17 04:52:21;;;;;;;2.25;2.05;;;6.50;80.40;;;;;;5086819;28;20508;-40
2021/01/17 04:54:47;;;;;;;3.85;3.00;;;6.50;80.40;;;;;;5093671;28;20036;-40
2021/01/17 04:57:42;;;;;;;4.68;3.35;;;6.50;80.50;;;;;;5086819;28;20131;-40
2021/01/17 05:00:09;;;;;;;4.22;2.80;;;6.50;80.60;;;;;;5071166;28;20055;-40
2021/01/17 05:02:48;;;;;;;3.78;2.88;;;6.50;80.50;;;;;;5086475;28;20527;-40
2021/01/17 05:05:24;;;;;;;3.85;3.00;;;6.50;80.50;;;;;;5069127;28;20052;-40
2021/01/17 05:08:26;;;;;;;3.88;2.88;;;6.50;80.50;;;;;;5086302;28;20025;-40
2021/01/17 05:11:05;;;;;;;3.10;2.47;;;6.40;80.40;;;;;;5085680;28;20043;-40
2021/01/17 05:13:36;;;;;;;3.92;2.80;;;6.40;80.50;;;;;;5086442;28;20084;-40
2021/01/17 05:16:07;;;;;;;4.35;3.20;;;6.40;80.50;;;;;;5086279;28;20024;-41
2021/01/17 05:18:34;;;;;;;5.70;3.10;;;6.40;80.50;;;;;;5086418;28;20394;-40
2021/01/17 05:21:01;;;;;;;4.57;3.33;;;6.40;80.50;;;;;;5086309;28;20489;-40
2021/01/17 05:23:34;;;;;;;;;;;6.40;80.50;;;;;;5086929;28;20896;-40
2021/01/17 05:26:01;;;;;;;3.20;2.90;;;6.40;80.60;;;;;;5085958;28;19908;-40
2021/01/17 05:28:28;;;;;;;;;;;6.40;80.60;;;;;;5086875;28;20071;-40
2021/01/17 05:30:56;;;;;;;3.67;2.72;;;6.30;80.60;;;;;;5086087;28;20003;-40
2021/01/17 05:33:26;;;;;;;4.82;3.05;;;6.30;80.60;;;;;;5084739;28;20032;-41
2021/01/17 05:35:52;;;;;;;3.90;3.00;;;6.30;80.70;;;;;;5085502;28;20020;-41
2021/01/17 05:38:18;;;;;;;4.18;3.00;;;6.30;80.60;;;;;;5088198;28;20028;-41
2021/01/17 05:40:44;;;;;;;4.20;3.13;;;6.30;80.60;;;;;;5086451;28;20541;-40
2021/01/17 05:43:10;;;;;;;3.95;3.00;;;6.30;80.60;;;;;;5085862;28;20028;-40
2021/01/17 05:45:36;;;;;;;3.97;3.05;;;6.30;80.60;;;;;;5085952;28;20028;-40
2021/01/17 05:48:04;;;;;;;4.68;3.28;;;6.30;80.70;;;;;;5085692;28;20092;-40
2021/01/17 05:50:31;;;;;;;3.72;2.92;;;6.20;80.70;;;;;;5085665;28;20032;-40
2021/01/17 05:52:58;;;;;;;6.07;3.20;;;6.30;80.70;;;;;;5085638;28;20039;-41
2021/01/17 05:55:40;;;;;;;3.92;2.75;;;6.20;80.60;;;;;;5085742;28;20025;-40
2021/01/17 05:58:26;;;;;;;4.45;3.13;;;6.20;80.60;;;;;;5085213;28;20074;-40
2021/01/17 06:00:56;;;;;;;3.65;2.85;;;6.20;80.60;;;;;;5078087;28;20056;-40
2021/01/17 06:03:32;;;;;;;3.78;2.92;;;6.20;80.60;;;;;;5085576;28;20028;-40
2021/01/17 06:06:08;;;;;;;4.28;3.40;;;6.20;80.60;;;;;;5083977;28;20032;-40
2021/01/17 06:08:34;;;;;;;4.20;3.08;;;6.20;80.70;;;;;;5085354;28;20076;-41
2021/01/17 06:11:11;;;;;;;4.47;3.08;;;6.20;80.70;;;;;;5084391;28;20413;-40
2021/01/17 06:13:38;;;;;;;3.85;3.20;;;6.20;81.40;;;;;;5083907;28;20055;-41
2021/01/17 06:16:22;;;;;;;;;;;6.20;80.70;;;;;;5085956;28;20043;-40
2021/01/17 06:18:59;;;;;;;3.08;2.60;;;6.20;81.50;;;;;;5085100;28;19916;-40
2021/01/17 06:21:25;;;;;;;3.40;3.10;;;6.20;80.80;;;;;;5083720;28;20036;-40
2021/01/17 06:23:59;;;;;;;4.53;3.22;;;6.20;80.80;;;;;;5085235;28;20485;-41
2021/01/17 06:26:27;;;;;;;4.40;3.40;;;6.10;80.80;;;;;;5085076;28;20068;-40
2021/01/17 06:28:53;;;;;;;4.15;3.13;;;6.10;80.80;;;;;;5084941;28;20028;-40
2021/01/17 06:31:29;;;;;;;4.13;2.95;;;6.10;80.80;;;;;;5085023;28;20032;-41
2021/01/17 06:34:08;;;;;;;5.07;3.20;;;6.10;80.80;;;;;;5088109;28;20055;-42
2021/01/17 06:36:36;;;;;;;4.00;2.95;;;6.10;80.90;;;;;;5084871;28;20036;-40
2021/01/17 06:39:03;;;;;;;4.88;3.17;;;6.10;80.90;;;;;;5084417;28;20024;-41
2021/01/17 06:41:39;;;;;;;4.32;3.20;;;6.10;80.90;;;;;;5085431;28;20032;-40
2021/01/17 06:44:10;;;;;;;4.55;3.22;;;6.10;80.90;;;;;;5084754;28;20029;-40
2021/01/17 06:46:46;;;;;;;4.45;3.20;;;6.10;80.90;;;;;;5084687;28;20059;-41
2021/01/17 06:49:22;;;;;;;4.30;3.17;;;6.10;81.00;;;;;;5083367;28;20025;-40
2021/01/17 06:51:49;;;;;;;5.05;3.63;;;6.10;81.00;;;;;;5084430;28;20036;-41
2021/01/17 06:54:35;;;;;;;;;;;6.00;80.90;;;;;;5084590;28;20050;-41
2021/01/17 06:57:02;;;;;;;4.53;3.00;;;6.10;81.10;;;;;;5084310;28;19908;-41
2021/01/17 06:59:36;;;;;;;3.58;2.95;;;6.00;81.00;;;;;;5084340;28;20028;-40
2021/01/17 07:02:22;;;;;;;4.47;3.58;;;6.00;81.00;;;;;;5092723;28;20804;-40
2021/01/17 07:05:07;;;;;;;4.20;3.13;;;6.00;81.00;;;;;;5104670;28;20028;-41
2021/01/17 07:08:05;;;;;;;4.13;2.80;;;6.00;81.10;;;;;;5104439;28;20032;-40
2021/01/17 07:10:41;;;;;;;5.18;3.03;;;6.00;81.10;;;;;;5102295;28;20072;-40
2021/01/17 07:13:12;;;;;;;4.53;3.40;;;6.00;81.00;;;;;;5088923;28;20139;-40
2021/01/17 07:15:40;;;;;;;4.20;3.00;;;6.00;81.10;;;;;;5082744;28;20025;-40
2021/01/17 07:18:13;;;;;;;4.78;3.17;;;6.00;81.10;;;;;;5082858;28;20396;-40
2021/01/17 07:20:41;;;;;;;4.22;3.33;;;6.00;81.10;;;;;;5083744;28;20055;-40
2021/01/17 07:23:08;;;;;;;4.25;3.13;;;6.00;81.10;;;;;;5084137;28;20028;-41
2021/01/17 07:25:35;;;;;;;;;;;6.00;81.20;;;;;;5084542;28;20265;-41
2021/01/17 07:28:20;;;;;;;3.95;3.03;;;6.00;81.20;;;;;;5116125;28;19912;-40
2021/01/17 07:31:01;;;;;;;4.65;3.35;;;6.00;81.20;;;;;;5083226;28;20082;-41
2021/01/17 07:33:29;;;;;;;3.58;3.15;;;6.00;81.20;;;;;;5084114;28;20038;-40
2021/01/17 07:36:05;;;;;;;4.00;3.53;;;6.00;81.20;;;;;;5083825;28;20032;-40
2021/01/17 07:38:46;;;;;;;4.18;3.30;;;6.00;81.20;;;;;;5083771;28;20028;-40
2021/01/17 07:41:13;;;;;;;6.65;3.10;;;6.00;81.20;;;;;;5098810;28;20028;-40
2021/01/17 07:43:42;;;;;;;3.92;3.00;;;6.00;81.30;;;;;;5083990;28;20024;-41
2021/01/17 07:46:10;;;;;;;3.72;2.90;;;6.00;81.30;;;;;;5082452;28;20028;-40
2021/01/17 07:48:36;;;;;;;4.10;3.28;;;5.90;81.20;;;;;;5081990;28;20644;-40
2021/01/17 07:51:04;;;;;;;4.23;3.20;;;5.90;81.20;;;;;;5083891;28;20094;-40
2021/01/17 07:53:39;;;;;;;4.28;3.33;;;5.90;81.30;;;;;;5074988;28;20269;-41
2021/01/17 07:56:16;;;;;;;3.95;3.03;;;5.90;81.30;;;;;;5083616;28;20040;-41
2021/01/17 07:58:47;;;;;;;4.13;3.25;;;5.90;81.20;;;;;;5083066;28;20048;-40
2021/01/17 08:01:42;;;;;;;3.60;3.10;;;5.90;81.30;;;;;;5082459;28;20051;-40
2021/01/17 08:04:11;;;;;;;4.65;3.42;;;5.90;81.30;;;;;;5082819;28;20039;-40
2021/01/17 08:06:37;;;;;;;3.88;3.28;;;5.90;81.30;;;;;;5083457;28;20474;-40
2021/01/17 08:09:09;;;;;;;3.85;3.05;;;5.90;81.30;;;;;;5083062;28;20025;-40
2021/01/17 08:11:45;;;;;;;4.57;3.42;;;5.90;81.30;;;;;;5081176;28;20048;-40
2021/01/17 08:14:30;;;;;;;5.00;3.40;;;5.90;81.30;;;;;;5063344;28;20089;-40
2021/01/17 08:17:05;;;;;;;4.47;3.10;;;5.90;81.30;;;;;;5062122;28;20036;-41
2021/01/17 08:19:53;;;;;;;4.68;3.20;;;5.90;81.40;;;;;;5063037;28;20021;-40
2021/01/17 08:22:23;;;;;;;3.75;3.13;;;5.90;81.30;;;;;;5063135;28;20062;-40
2021/01/17 08:24:59;;;;;;;3.90;3.10;;;5.90;81.40;;;;;;5071095;28;20025;-40
2021/01/17 08:27:30;;;;;;;3.78;3.28;;;5.90;81.40;;;;;;5083328;28;20036;-40
2021/01/17 08:30:03;;;;;;;3.72;3.13;;;5.90;81.40;;;;;;5083139;28;20883;-41
2021/01/17 08:32:43;;;;;;;4.47;3.30;;;5.90;81.40;;;;;;5086625;28;20047;-40
2021/01/17 08:35:22;;;;;;;4.22;3.28;;;5.90;81.40;;;;;;5083111;28;20055;-40
2021/01/17 08:37:55;;;;;;;4.50;3.45;;;5.90;81.40;;;;;;5083217;28;20020;-40
2021/01/17 08:40:30;;;;;;;3.25;2.92;;;5.90;81.40;;;;;;5083535;28;20465;-41
2021/01/17 08:43:01;;;;;;;3.83;3.17;;;5.80;81.40;;;;;;5083342;28;20039;-41
2021/01/17 08:45:27;;;;;;;4.18;2.95;;;5.90;81.50;;;;;;5083125;28;20036;-40
2021/01/17 08:47:57;;;;;;;5.20;3.40;;;5.90;81.50;;;;;;5083193;28;20044;-40
2021/01/17 08:50:30;;;;;;;4.03;3.30;;;5.90;81.50;;;;;;5081606;28;20116;-40
2021/01/17 08:53:11;;;;;;;4.15;3.25;;;5.90;81.50;;;;;;5083110;28;20024;-41
2021/01/17 08:55:38;;;;;;;3.88;3.25;;;5.90;81.50;;;;;;5082992;28;20021;-41
2021/01/17 08:58:04;;;;;;;3.92;3.08;;;5.90;81.60;;;;;;5082987;28;20079;-41
2021/01/17 09:00:53;;;;;;;4.50;3.35;;;5.90;81.60;;;;;;5082871;28;20076;-40
2021/01/17 09:03:26;;;;;;;4.38;3.17;;;5.80;81.50;;;;;;5085477;28;20028;-40
2021/01/17 09:06:05;;;;;;;3.65;2.85;;;5.80;82.20;;;;;;5082926;28;20036;-41
2021/01/17 09:08:33;;;;;;;3.53;2.80;;;5.80;81.50;;;;;;5072602;28;20025;-41
2021/01/17 09:10:59;;;;;;;4.72;2.90;;;5.80;81.50;;;;;;5070141;28;20102;-40
2021/01/17 09:13:32;;;;;;;3.57;2.60;;;5.80;81.50;;;;;;5068858;28;20029;-41
2021/01/17 09:16:01;;;;;;;3.85;3.13;;;5.80;81.60;;;;;;5066672;28;20064;-40
2021/01/17 09:18:34;;;;;;;3.70;3.10;;;5.80;81.50;;;;;;5066566;28;20029;-40
2021/01/17 09:21:01;;;;;;;4.55;3.38;;;5.80;81.50;;;;;;5066031;28;20112;-40
2021/01/17 09:23:27;;;;;;;4.50;3.40;;;5.80;81.50;;;;;;5066395;28;20029;-41
2021/01/17 09:25:57;;;;;;;5.50;3.03;;;5.80;81.60;;;;;;5083119;28;20294;-40
2021/01/17 09:28:23;;;;;;;3.80;2.90;;;5.80;81.60;;;;;;5084697;28;20040;-40
2021/01/17 09:30:56;;;;;;;4.90;3.50;;;5.80;81.60;;;;;;5085945;28;20409;-40
2021/01/17 09:33:22;;;;;;;3.70;3.28;;;5.80;81.60;;;;;;5084996;28;20036;-40
2021/01/17 09:35:48;;;;;;;4.38;3.15;;;5.80;81.60;;;;;;5086047;28;20473;-41
2021/01/17 09:38:16;;;;;;;3.83;2.80;;;5.80;81.60;;;;;;5086410;28;20040;-40
2021/01/17 09:40:43;;;;;;;4.00;3.10;;;5.80;81.60;;;;;;5091232;28;20024;-41
2021/01/17 09:43:09;;;;;;;;;;;5.80;81.60;;;;;;5089509;28;20428;-40
2021/01/17 09:45:35;;;;;;;4.50;3.25;;;5.80;81.60;;;;;;5088599;28;19930;-41
2021/01/17 09:48:02;;;;;;;4.77;3.33;;;5.80;81.60;;;;;;5084709;28;20029;-40
2021/01/17 09:50:35;;;;;;;4.77;3.37;;;5.80;81.70;;;;;;5085458;28;20036;-40
2021/01/17 09:53:07;;;;;;;5.38;3.53;;;5.80;81.70;;;;;;5084312;28;20025;-40
2021/01/17 09:55:35;;;;;;;3.83;3.00;;;5.80;81.70;;;;;;5085732;28;20088;-40
2021/01/17 09:58:01;;;;;;;4.35;3.17;;;5.80;81.70;;;;;;5085594;28;20127;-40
2021/01/17 10:00:27;;;;;;;4.60;3.80;;;5.80;81.70;;;;;;5067273;28;20472;-40
2021/01/17 10:02:54;;;;;;;2.25;2.05;;;5.80;81.70;;;;;;5085874;28;20077;-41
2021/01/17 10:05:28;;;;;;;4.53;3.10;;;5.80;81.80;;;;;;5084005;28;20025;-40
2021/01/17 10:08:01;;;;;;;4.15;3.38;;;5.80;81.80;;;;;;5085634;28;20112;-40
2021/01/17 10:10:28;;;;;;;4.85;3.00;;;5.80;81.80;;;;;;5085530;28;20021;-40
2021/01/17 10:12:54;;;;;;;4.80;3.40;;;5.80;81.80;;;;;;5071799;28;20056;-41
2021/01/17 10:15:20;;;;;;;4.53;3.13;;;5.80;81.80;;;;;;5065454;28;20029;-40
2021/01/17 10:17:48;;;;;;;3.70;3.13;;;5.80;81.80;;;;;;5065516;28;20064;-40
2021/01/17 10:20:30;;;;;;;4.88;3.38;;;5.80;81.80;;;;;;5065296;28;20025;-40
2021/01/17 10:23:03;;;;;;;4.28;3.10;;;5.80;81.80;;;;;;5065152;28;20584;-41
2021/01/17 10:25:30;;;;;;;3.88;2.95;;;5.80;81.80;;;;;;5078382;28;20059;-40
2021/01/17 10:27:59;;;;;;;3.67;2.88;;;5.80;81.80;;;;;;5102839;28;20024;-40
2021/01/17 10:30:27;;;;;;;5.10;3.35;;;5.80;81.80;;;;;;5105175;28;20024;-41
2021/01/17 10:33:05;;;;;;;4.35;3.40;;;5.80;81.80;;;;;;5105388;28;20582;-40
2021/01/17 10:35:33;;;;;;;3.65;3.28;;;5.70;81.80;;;;;;5104114;28;20016;-40
2021/01/17 10:38:02;;;;;;;4.68;3.22;;;5.80;81.90;;;;;;5105081;28;20058;-40
2021/01/17 10:40:29;;;;;;;4.82;3.20;;;5.80;81.90;;;;;;5104172;28;20061;-40
2021/01/17 10:42:57;;;;;;;3.67;3.13;;;5.80;81.90;;;;;;5091224;28;20036;-40
2021/01/17 10:45:25;;;;;;;4.22;3.17;;;5.70;81.80;;;;;;5084841;28;20028;-40
2021/01/17 10:47:55;;;;;;;4.57;3.35;;;5.80;81.90;;;;;;5083491;28;20370;-41
2021/01/17 10:50:23;;;;;;;3.78;3.03;;;5.80;81.90;;;;;;5083687;28;20016;-42
2021/01/17 10:53:11;;;;;;;;;;;5.70;81.90;;;;;;5083475;28;20043;-41
2021/01/17 10:55:38;;;;;;;4.70;3.28;;;5.70;81.90;;;;;;5084506;28;19904;-43
2021/01/17 10:58:05;;;;;;;4.28;3.38;;;5.70;81.90;;;;;;5084350;28;20106;-40
2021/01/17 11:00:31;;;;;;;4.32;3.10;;;5.70;81.90;;;;;;5082912;28;20027;-40
2021/01/17 11:03:15;;;;;;;4.10;2.88;;;5.70;82.00;;;;;;5085720;28;20089;-40
2021/01/17 11:05:41;;;;;;;3.08;2.70;;;5.80;82.00;;;;;;5083049;28;20032;-40
2021/01/17 11:08:11;;;;;;;4.25;3.20;;;5.70;82.00;;;;;;5084484;28;20032;-41
2021/01/17 11:10:37;;;;;;;4.53;2.85;;;5.70;82.00;;;;;;5084671;28;20077;-40
2021/01/17 11:13:03;;;;;;;3.53;3.15;;;5.70;82.00;;;;;;5069124;28;20119;-40
2021/01/17 11:15:34;;;;;;;3.97;3.40;;;5.70;82.00;;;;;;5064142;28;20021;-41
2021/01/17 11:18:00;;;;;;;4.00;3.17;;;5.70;82.00;;;;;;5064379;28;20035;-40
2021/01/17 11:20:31;;;;;;;5.80;3.28;;;5.70;82.00;;;;;;5064183;28;20091;-40
2021/01/17 11:23:04;;;;;;;4.35;3.17;;;5.70;82.00;;;;;;5063836;28;20028;-41
2021/01/17 11:25:31;;;;;;;4.30;3.00;;;5.70;82.00;;;;;;5077479;28;20425;-40
2021/01/17 11:28:01;;;;;;;3.17;2.77;;;5.70;82.10;;;;;;5082698;28;20091;-40
2021/01/17 11:30:28;;;;;;;4.95;3.38;;;5.70;82.00;;;;;;5083934;28;20020;-40
2021/01/17 11:33:06;;;;;;;4.28;3.38;;;5.70;82.10;;;;;;5083781;28;20028;-41
2021/01/17 11:35:33;;;;;;;4.53;2.80;;;5.70;82.00;;;;;;5083407;28;20111;-40
2021/01/17 11:37:59;;;;;;;3.53;2.80;;;5.70;82.10;;;;;;5083826;28;20031;-40
2021/01/17 11:40:25;;;;;;;4.97;3.25;;;5.70;82.10;;;;;;5086954;28;20020;-40
2021/01/17 11:42:51;;;;;;;4.13;3.20;;;5.70;82.10;;;;;;5090519;28;20028;-40
2021/01/17 11:45:21;;;;;;;3.75;3.15;;;5.70;82.10;;;;;;5082490;28;20025;-40
2021/01/17 11:47:58;;;;;;;4.57;3.30;;;5.70;82.10;;;;;;5083616;28;20111;-40
2021/01/17 11:50:25;;;;;;;4.63;3.40;;;5.70;82.10;;;;;;5100705;28;20543;-40
2021/01/17 11:53:02;;;;;;;4.90;3.55;;;5.70;82.10;;;;;;5084822;28;20289;-40
2021/01/17 11:55:29;;;;;;;3.83;3.00;;;5.70;82.10;;;;;;5083771;28;20027;-40
2021/01/17 11:58:14;;;;;;;4.63;3.40;;;5.70;82.20;;;;;;5083490;28;20056;-41
2021/01/17 12:01:00;;;;;;;4.85;3.38;;;5.70;82.20;;;;;;5083739;28;20021;-40
2021/01/17 12:03:34;;;;;;;4.53;3.15;;;5.70;82.20;;;;;;5083382;28;20032;-41
2021/01/17 12:06:16;;;;;;;3.88;3.08;;;5.70;82.20;;;;;;5083473;28;20074;-40
2021/01/17 12:08:53;;;;;;;4.25;3.10;;;5.70;82.20;;;;;;5083702;28;20051;-40
2021/01/17 12:11:37;;;;;;;4.43;3.15;;;5.70;82.30;;;;;;5082427;28;20025;-40
2021/01/17 12:14:06;;;;;;;4.53;3.22;;;5.70;82.20;;;;;;5083233;28;20028;-40
2021/01/17 12:16:58;;;;;;;5.20;3.30;;;5.70;82.20;;;;;;5083671;28;20021;-40
2021/01/17 12:19:26;;;;;;;3.80;2.90;;;5.70;82.20;;;;;;5082424;28;20043;-41
2021/01/17 12:21:56;;;;;;;4.60;2.92;;;5.60;82.10;;;;;;5082826;28;20497;-40
2021/01/17 12:24:22;;;;;;;3.92;3.03;;;5.60;82.10;;;;;;5083481;28;20032;-40
2021/01/17 12:26:48;;;;;;;3.85;3.08;;;5.60;82.10;;;;;;5083283;28;20528;-40
2021/01/17 12:29:15;;;;;;;3.97;3.00;;;5.60;82.10;;;;;;5082147;28;20032;-40
2021/01/17 12:31:41;;;;;;;2.70;2.45;;;5.60;82.10;;;;;;5083416;28;20037;-40
2021/01/17 12:34:08;;;;;;;4.20;3.10;;;5.60;82.20;;;;;;5083035;28;20089;-40
2021/01/17 12:36:35;;;;;;;4.35;3.50;;;5.60;82.20;;;;;;5091645;28;20523;-40
2021/01/17 12:39:02;;;;;;;4.88;3.70;;;5.60;82.20;;;;;;5102266;28;20032;-41
2021/01/17 12:41:33;;;;;;;3.90;3.20;;;5.60;82.20;;;;;;5101125;28;20146;-40
2021/01/17 12:43:59;;;;;;;4.00;2.75;;;5.60;82.20;;;;;;5082862;28;20029;-41
2021/01/17 12:46:26;;;;;;;4.17;3.10;;;5.60;82.20;;;;;;5084477;28;20031;-40
2021/01/17 12:48:52;;;;;;;4.60;3.33;;;5.60;82.20;;;;;;5087228;28;20013;-40
2021/01/17 12:51:18;;;;;;;5.53;3.28;;;5.60;82.20;;;;;;5096403;28;20393;-40
2021/01/17 12:53:45;;;;;;;4.53;3.60;;;5.60;82.20;;;;;;5086608;28;20057;-41
2021/01/17 12:56:12;;;;;;;4.47;3.20;;;5.60;82.30;;;;;;5086922;28;20050;-40
2021/01/17 12:58:38;;;;;;;5.45;3.17;;;5.60;82.20;;;;;;5088064;28;20062;-40
2021/01/17 13:01:04;;;;;;;4.43;3.40;;;5.60;82.30;;;;;;5105872;28;20031;-40
2021/01/17 13:03:34;;;;;;;5.13;3.63;;;5.60;82.30;;;;;;5106644;28;20030;-40
2021/01/17 13:06:00;;;;;;;3.17;2.75;;;5.60;82.30;;;;;;5106725;28;20032;-40
2021/01/17 13:08:26;;;;;;;4.47;3.25;;;5.60;82.30;;;;;;5106795;28;20026;-40
2021/01/17 13:10:52;;;;;;;4.03;3.15;;;5.50;82.30;;;;;;5106222;28;20774;-41
2021/01/17 13:13:19;;;;;;;3.83;3.28;;;5.50;82.30;;;;;;5089436;28;20033;-40
2021/01/17 13:15:48;;;;;;;4.50;3.13;;;5.50;82.30;;;;;;5085406;28;20032;-40